Airfield :
LOGIN :

Register | Disclaimer

   EN    FR    IT 

 










Legend :    VFR   Marginal VFR   IFR   Intensive IFR   Very Intensive IFR
Visi :
Ceiling :
>= 8 km
>= 3000ft
5 to 8 km
1000 to 3000 ft
1500m to 5 km
500 to 1000 ft
800 to 1500m
200 to 500 ft
< 800m
< 200 ft
Symbols :   Thunderstorms  Fog  Heavy snow  Heavy precipitations  Wind > 20 kt
SIGMETs :     Misc.  Thunderstorms  Icing  Turbulence  Mountain Waves  Volcanic Ashes






- Airport Elevation : 659 ft
- IATA code : LYN


LFLY - Lyon Bron

CURRENT METAR :
  • 211430Z AUTO 03006KT 9999 -RA FEW007/// OVC014/// ///TCU 14/12 Q1020 TEMPO RA BKN013

EXPIRED METARs :
  • 211400Z AUTO 02005KT 8000 -RA SCT010/// BKN014/// BKN019/// ///TCU 14/12 Q1020 TEMPO RA BKN013
  • 211330Z AUTO 04006KT 9999 -RA SCT014/// BKN023/// BKN050/// ///TCU 14/12 Q1020 TEMPO RA BKN013
  • 211300Z AUTO 02006KT 340V050 9999 -RA SCT010/// BKN019/// BKN027/// ///TCU 14/12 Q1020 TEMPO RA BKN013
  • 211230Z AUTO VRB03KT 9999 -RA FEW019/// SCT044/// OVC070/// ///CB 15/13 Q1020 TEMPO RA BKN013
  • 211200Z AUTO 35003KT 310V020 8000 -RA FEW025/// BKN056/// OVC068/// ///TCU 14/12 Q1020 TEMPO RA BKN013

TAF TAF LFLY
Valid from the 21 at 12:00 until the 22 at 12:00 UTC


211100Z 2112/2212 01005KT 9999 BKN036
TEMPO 2112/2201 RA BKN013
BECMG 2201/2203 BKN007
PROB30
TEMPO 2204/2208 3000 BR
BECMG 2209/2211 SCT020
ATIS : +33 4 72 15 87 96



MET'MAP, your aeronautical weather chart ! - Copyright ORBIFLY December 2007 - Disclaimer

ORBIFLY MET'MAP TEAM :

Programming & Development : Alexandra Zaïnal
Concept & Development : Baudouin d'Aumeries
Co-Development & Prog : Marc-Olivier Méhu
Technical & hardware support : Manuel Goepfert

Contact : metmap@orbifly.com




SOURCES & CREDITS :

   NOAA